createdAt,value
2018-09-17T00:00:47.000Z,100693
2018-09-17T00:02:47.000Z,100700
2018-09-17T00:03:47.000Z,100696
2018-09-17T00:04:47.000Z,100695
2018-09-17T00:06:47.000Z,100694
2018-09-17T00:08:47.000Z,100699
2018-09-17T00:10:47.000Z,100695
2018-09-17T00:11:47.000Z,100700
2018-09-17T00:13:47.000Z,100705
2018-09-17T00:15:47.000Z,100707
2018-09-17T00:17:47.000Z,100702
2018-09-17T00:18:47.000Z,100703
2018-09-17T00:20:32.000Z,100707
2018-09-17T00:21:47.000Z,100701
2018-09-17T00:23:47.000Z,100706
2018-09-17T00:24:47.000Z,100709
2018-09-17T00:26:32.000Z,100707
2018-09-17T00:27:47.000Z,100705
2018-09-17T00:28:47.000Z,100708
2018-09-17T00:30:47.000Z,100701
2018-09-17T00:31:47.000Z,100700
2018-09-17T00:33:47.000Z,100696
2018-09-17T00:34:47.000Z,100687
2018-09-17T00:36:47.000Z,100689
2018-09-17T00:37:47.000Z,100693
2018-09-17T00:39:47.000Z,100695
2018-09-17T00:41:47.000Z,100694
2018-09-17T00:42:47.000Z,100693
2018-09-17T00:44:47.000Z,100700
2018-09-17T00:46:17.000Z,100701
2018-09-17T00:47:47.000Z,100693
2018-09-17T00:48:47.000Z,100693
2018-09-17T00:50:47.000Z,100692
2018-09-17T00:51:47.000Z,100698
2018-09-17T00:53:47.000Z,100699
2018-09-17T00:54:47.000Z,100696
2018-09-17T00:56:47.000Z,100698
2018-09-17T00:57:47.000Z,100701
2018-09-17T00:59:47.000Z,100697
2018-09-17T01:00:47.000Z,100710
2018-09-17T01:01:47.000Z,100706
2018-09-17T01:03:32.000Z,100706
2018-09-17T01:04:47.000Z,100711
2018-09-17T01:06:47.000Z,100708
2018-09-17T01:08:47.000Z,100710
2018-09-17T01:10:47.000Z,100710
2018-09-17T01:11:47.000Z,100706
2018-09-17T01:13:47.000Z,100699
2018-09-17T01:15:47.000Z,100701
2018-09-17T01:16:47.000Z,100701
2018-09-17T01:17:47.000Z,100702
2018-09-17T01:19:47.000Z,100706
2018-09-17T01:21:47.000Z,100709
2018-09-17T01:23:47.000Z,100712
2018-09-17T01:25:47.000Z,100707
2018-09-17T01:27:47.000Z,100705
2018-09-17T01:28:47.000Z,100709
2018-09-17T01:29:47.000Z,100707
2018-09-17T01:31:47.000Z,100710
2018-09-17T01:33:32.000Z,100705
2018-09-17T01:34:47.000Z,100706
2018-09-17T01:36:47.000Z,100710
2018-09-17T01:38:47.000Z,100716
2018-09-17T01:40:47.000Z,100714
2018-09-17T01:42:47.000Z,100710
2018-09-17T01:44:47.000Z,100707
2018-09-17T01:46:47.000Z,100710
2018-09-17T01:48:47.000Z,100702
2018-09-17T01:50:47.000Z,100697
2018-09-17T01:51:47.000Z,100692
2018-09-17T01:52:47.000Z,100692
2018-09-17T01:54:47.000Z,100689
2018-09-17T01:56:47.000Z,100695
2018-09-17T01:58:47.000Z,100685
2018-09-17T02:00:47.000Z,100694
2018-09-17T02:02:47.000Z,100690
2018-09-17T02:04:47.000Z,100696
2018-09-17T02:06:47.000Z,100697
2018-09-17T02:07:47.000Z,100699
2018-09-17T02:09:47.000Z,100691
2018-09-17T02:11:47.000Z,100689
2018-09-17T02:13:47.000Z,100681
2018-09-17T02:14:47.000Z,100679
2018-09-17T02:15:47.000Z,100676
2018-09-17T02:16:47.000Z,100681
2018-09-17T02:18:47.000Z,100679
2018-09-17T02:20:47.000Z,100684
2018-09-17T02:21:47.000Z,100680
2018-09-17T02:22:47.000Z,100678
2018-09-17T02:24:47.000Z,100676
2018-09-17T02:25:47.000Z,100669
2018-09-17T02:26:47.000Z,100668
2018-09-17T02:28:31.000Z,100666
2018-09-17T02:29:47.000Z,100665
2018-09-17T02:30:47.000Z,100664
2018-09-17T02:32:47.000Z,100660
2018-09-17T02:34:31.000Z,100671
2018-09-17T02:35:47.000Z,100669
2018-09-17T02:37:47.000Z,100666
2018-09-17T02:39:47.000Z,100662
2018-09-17T02:40:47.000Z,100658
2018-09-17T02:42:47.000Z,100659
2018-09-17T02:44:47.000Z,100661
2018-09-17T02:46:31.000Z,100660
2018-09-17T02:47:47.000Z,100670
2018-09-17T02:48:47.000Z,100665
2018-09-17T02:50:47.000Z,100668
2018-09-17T02:51:47.000Z,100666
2018-09-17T02:53:47.000Z,100670
2018-09-17T02:54:47.000Z,100672
2018-09-17T02:56:47.000Z,100672
2018-09-17T02:58:47.000Z,100679
2018-09-17T03:00:47.000Z,100684
2018-09-17T03:01:47.000Z,100688
2018-09-17T03:03:47.000Z,100694
2018-09-17T03:05:47.000Z,100689
2018-09-17T03:07:47.000Z,100685
2018-09-17T03:09:47.000Z,100685
2018-09-17T03:11:32.000Z,100673
2018-09-17T03:13:47.000Z,100680
2018-09-17T03:15:47.000Z,100688
2018-09-17T03:17:47.000Z,100691
2018-09-17T03:19:47.000Z,100690
2018-09-17T03:21:47.000Z,100688
2018-09-17T03:23:47.000Z,100687
2018-09-17T03:24:47.000Z,100687
2018-09-17T03:26:47.000Z,100691
2018-09-17T03:28:47.000Z,100697
2018-09-17T03:29:47.000Z,100698
2018-09-17T03:30:47.000Z,100694
2018-09-17T03:32:32.000Z,100690
2018-09-17T03:33:47.000Z,100689
2018-09-17T03:34:47.000Z,100691
2018-09-17T03:36:47.000Z,100696
2018-09-17T03:37:47.000Z,100699
2018-09-17T03:39:47.000Z,100702
2018-09-17T03:41:47.000Z,100696
2018-09-17T03:42:47.000Z,100694
2018-09-17T03:43:47.000Z,100690
2018-09-17T03:45:32.000Z,100686
2018-09-17T03:46:47.000Z,100690
2018-09-17T03:48:47.000Z,100694
2018-09-17T03:50:47.000Z,100696
2018-09-17T03:52:47.000Z,100704
2018-09-17T03:54:47.000Z,100708
2018-09-17T03:55:47.000Z,100710
2018-09-17T03:57:32.000Z,100704
2018-09-17T03:58:47.000Z,100703
2018-09-17T04:00:47.000Z,100703
2018-09-17T04:01:47.000Z,100704
2018-09-17T04:03:47.000Z,100695
2018-09-17T04:05:47.000Z,100695
2018-09-17T04:06:47.000Z,100695
2018-09-17T04:08:47.000Z,100696
2018-09-17T04:10:47.000Z,100695
2018-09-17T04:12:47.000Z,100687
2018-09-17T04:14:47.000Z,100685
2018-09-17T04:16:47.000Z,100692
2018-09-17T04:17:47.000Z,100696
2018-09-17T04:19:47.000Z,100694
2018-09-17T04:20:47.000Z,100694
2018-09-17T04:22:47.000Z,100688
2018-09-17T04:24:32.000Z,100689
2018-09-17T04:25:47.000Z,100689
2018-09-17T04:27:47.000Z,100689
2018-09-17T04:28:47.000Z,100694
2018-09-17T04:30:47.000Z,100690
2018-09-17T04:31:47.000Z,100686
2018-09-17T04:33:47.000Z,100685
2018-09-17T04:35:17.000Z,100685
2018-09-17T04:36:47.000Z,100684
2018-09-17T04:38:47.000Z,100692
2018-09-17T04:40:47.000Z,100692
2018-09-17T04:42:47.000Z,100695
2018-09-17T04:44:47.000Z,100690
2018-09-17T04:45:47.000Z,100691
2018-09-17T04:47:47.000Z,100688
2018-09-17T04:49:47.000Z,100690
2018-09-17T04:51:32.000Z,100686
2018-09-17T04:52:47.000Z,100686
2018-09-17T04:54:32.000Z,100690
2018-09-17T04:55:47.000Z,100684
2018-09-17T04:57:47.000Z,100689
2018-09-17T04:59:47.000Z,100690
2018-09-17T05:01:47.000Z,100692
2018-09-17T05:03:47.000Z,100701
2018-09-17T05:05:47.000Z,100696
2018-09-17T05:07:32.000Z,100698
2018-09-17T05:08:47.000Z,100697
2018-09-17T05:10:47.000Z,100695
2018-09-17T05:11:47.000Z,100694
2018-09-17T05:13:47.000Z,100703
2018-09-17T05:14:47.000Z,100704
2018-09-17T05:16:47.000Z,100707
2018-09-17T05:18:47.000Z,100705
2018-09-17T05:20:47.000Z,100710
2018-09-17T05:21:47.000Z,100708
2018-09-17T05:23:47.000Z,100706
2018-09-17T05:24:47.000Z,100706
2018-09-17T05:26:47.000Z,100702
2018-09-17T05:28:47.000Z,100712
2018-09-17T05:29:47.000Z,100706
2018-09-17T05:31:32.000Z,100713
2018-09-17T05:32:47.000Z,100717
2018-09-17T05:34:47.000Z,100713
2018-09-17T05:35:47.000Z,100713
2018-09-17T05:37:47.000Z,100725
2018-09-17T05:38:47.000Z,100721
2018-09-17T05:40:47.000Z,100720
2018-09-17T05:42:47.000Z,100726
2018-09-17T05:44:47.000Z,100727
2018-09-17T05:45:47.000Z,100722
2018-09-17T05:47:47.000Z,100728
2018-09-17T05:49:47.000Z,100727
2018-09-17T05:50:47.000Z,100734
2018-09-17T05:52:47.000Z,100739
2018-09-17T05:54:47.000Z,100746
2018-09-17T05:55:47.000Z,100750
2018-09-17T05:56:47.000Z,100754
2018-09-17T05:58:47.000Z,100765
2018-09-17T05:59:47.000Z,100763
2018-09-17T06:01:47.000Z,100764
2018-09-17T06:03:47.000Z,100765
2018-09-17T06:04:47.000Z,100763
2018-09-17T06:06:32.000Z,100765
2018-09-17T06:07:47.000Z,100765
2018-09-17T06:09:47.000Z,100768
2018-09-17T06:11:47.000Z,100773
2018-09-17T06:13:32.000Z,100770
2018-09-17T06:14:47.000Z,100769
2018-09-17T06:16:32.000Z,100766
2018-09-17T06:17:47.000Z,100771
2018-09-17T06:19:16.000Z,100772
2018-09-17T06:20:47.000Z,100764
2018-09-17T06:21:47.000Z,100769
2018-09-17T06:23:47.000Z,100764
2018-09-17T06:24:47.000Z,100766
2018-09-17T06:26:47.000Z,100764
2018-09-17T06:28:47.000Z,100762
2018-09-17T06:30:47.000Z,100764
2018-09-17T06:32:47.000Z,100763
2018-09-17T06:34:47.000Z,100764
2018-09-17T06:36:47.000Z,100771
2018-09-17T06:38:32.000Z,100775
2018-09-17T06:39:47.000Z,100777
2018-09-17T06:40:47.000Z,100779
2018-09-17T06:41:47.000Z,100784
2018-09-17T06:43:47.000Z,100785
2018-09-17T06:44:47.000Z,100783
2018-09-17T06:46:32.000Z,100786
2018-09-17T06:47:47.000Z,100786
2018-09-17T06:49:32.000Z,100791
2018-09-17T06:50:47.000Z,100792
2018-09-17T06:51:47.000Z,100795
2018-09-17T06:52:47.000Z,100799
2018-09-17T06:54:32.000Z,100791
2018-09-17T06:55:47.000Z,100798
2018-09-17T06:56:47.000Z,100791
2018-09-17T06:58:47.000Z,100790
2018-09-17T07:00:47.000Z,100792
2018-09-17T07:01:47.000Z,100794
2018-09-17T07:02:47.000Z,100792
2018-09-17T07:04:47.000Z,100791
2018-09-17T07:06:47.000Z,100786
2018-09-17T07:08:47.000Z,100782
2018-09-17T07:10:47.000Z,100778
2018-09-17T07:12:47.000Z,100777
2018-09-17T07:14:32.000Z,100774
2018-09-17T07:15:47.000Z,100774
2018-09-17T07:16:47.000Z,100775
2018-09-17T07:18:47.000Z,100774
2018-09-17T07:19:47.000Z,100767
2018-09-17T07:21:32.000Z,100771
2018-09-17T07:22:47.000Z,100778
2018-09-17T07:23:47.000Z,100770
2018-09-17T07:25:47.000Z,100773
2018-09-17T07:26:47.000Z,100768
2018-09-17T07:28:32.000Z,100768
2018-09-17T07:29:47.000Z,100773
2018-09-17T07:31:47.000Z,100764
2018-09-17T07:33:47.000Z,100759
2018-09-17T07:35:47.000Z,100762
2018-09-17T07:37:47.000Z,100762
2018-09-17T07:39:32.000Z,100758
2018-09-17T07:40:47.000Z,100760
2018-09-17T07:42:47.000Z,100754
2018-09-17T07:43:47.000Z,100761
2018-09-17T07:45:47.000Z,100761
2018-09-17T07:47:47.000Z,100760
2018-09-17T07:49:32.000Z,100754
2018-09-17T07:50:47.000Z,100757
2018-09-17T07:52:47.000Z,100755
2018-09-17T07:53:47.000Z,100767
2018-09-17T07:55:47.000Z,100762
2018-09-17T07:57:47.000Z,100766
2018-09-17T07:59:47.000Z,100763
2018-09-17T08:01:47.000Z,100765
2018-09-17T08:02:47.000Z,100765
2018-09-17T08:04:47.000Z,100761
2018-09-17T08:06:47.000Z,100764
2018-09-17T08:08:47.000Z,100769
2018-09-17T08:10:47.000Z,100769
2018-09-17T08:12:47.000Z,100773
2018-09-17T08:14:47.000Z,100773
2018-09-17T08:15:47.000Z,100772
2018-09-17T08:17:47.000Z,100771
2018-09-17T08:19:17.000Z,100767
2018-09-17T08:20:47.000Z,100766
2018-09-17T08:21:47.000Z,100762
2018-09-17T08:23:32.000Z,100761
2018-09-17T08:24:47.000Z,100754
2018-09-17T08:26:47.000Z,100759
2018-09-17T08:28:47.000Z,100757
2018-09-17T08:30:47.000Z,100753
2018-09-17T08:31:47.000Z,100753
2018-09-17T08:33:47.000Z,100749
2018-09-17T08:34:47.000Z,100747
2018-09-17T08:36:32.000Z,100748
2018-09-17T08:37:47.000Z,100752
2018-09-17T08:39:47.000Z,100742
2018-09-17T08:41:47.000Z,100750
2018-09-17T08:43:47.000Z,100742
2018-09-17T08:44:47.000Z,100744
2018-09-17T08:46:17.000Z,100742
2018-09-17T08:49:31.000Z,100747
2018-09-17T08:51:31.000Z,100744
2018-09-17T08:53:31.000Z,100740
2018-09-17T08:54:31.000Z,100743
2018-09-17T08:55:31.000Z,100744
2018-09-17T08:57:31.000Z,100749
2018-09-17T08:59:31.000Z,100754
2018-09-17T09:01:31.000Z,100754
2018-09-17T09:02:31.000Z,100756
2018-09-17T09:04:15.000Z,100755
2018-09-17T09:05:31.000Z,100751
2018-09-17T09:07:31.000Z,100750
2018-09-17T09:08:31.000Z,100742
2018-09-17T09:09:31.000Z,100750
2018-09-17T09:11:00.000Z,100742
2018-09-17T09:12:31.000Z,100747
2018-09-17T09:13:31.000Z,100743
2018-09-17T09:14:31.000Z,100747
2018-09-17T09:16:31.000Z,100738
2018-09-17T09:17:31.000Z,100744
2018-09-17T09:19:31.000Z,100742
2018-09-17T09:20:31.000Z,100737
2018-09-17T09:22:31.000Z,100740
2018-09-17T09:23:31.000Z,100732
2018-09-17T09:25:31.000Z,100731
2018-09-17T09:26:31.000Z,100734
2018-09-17T09:27:31.000Z,100732
2018-09-17T09:29:16.000Z,100738
2018-09-17T09:30:31.000Z,100729
2018-09-17T09:31:31.000Z,100732
2018-09-17T09:33:31.000Z,100733
2018-09-17T09:35:16.000Z,100728
2018-09-17T09:36:31.000Z,100734
2018-09-17T09:37:31.000Z,100722
2018-09-17T09:39:31.000Z,100725
2018-09-17T09:41:31.000Z,100726
2018-09-17T09:43:31.000Z,100728
2018-09-17T09:45:31.000Z,100726
2018-09-17T09:46:31.000Z,100725
2018-09-17T09:48:16.000Z,100727
2018-09-17T09:49:31.000Z,100723
2018-09-17T09:53:17.000Z,100726
2018-09-17T09:54:17.000Z,100722
2018-09-17T09:56:17.000Z,100723
2018-09-17T09:58:17.000Z,100714
2018-09-17T10:00:17.000Z,100717
2018-09-17T10:02:17.000Z,100709
2018-09-17T10:03:17.000Z,100709
2018-09-17T10:06:48.000Z,100713
2018-09-17T10:09:03.000Z,100712
2018-09-17T10:10:03.000Z,100712
2018-09-17T10:11:03.000Z,100703
2018-09-17T10:13:03.000Z,100704
2018-09-17T10:15:03.000Z,100700
2018-09-17T10:16:48.000Z,100695
2018-09-17T10:18:03.000Z,100694
2018-09-17T10:19:48.000Z,100703
2018-09-17T10:21:03.000Z,100690
2018-09-17T10:23:03.000Z,100682
2018-09-17T10:25:03.000Z,100693
2018-09-17T10:26:48.000Z,100688
2018-09-17T10:27:48.000Z,100688
2018-09-17T10:29:03.000Z,100688
2018-09-17T10:31:03.000Z,100678
2018-09-17T10:33:03.000Z,100677
2018-09-17T10:35:03.000Z,100692
2018-09-17T10:37:03.000Z,100678
2018-09-17T10:38:03.000Z,100679
2018-09-17T10:40:03.000Z,100679
2018-09-17T10:42:03.000Z,100691
2018-09-17T10:44:03.000Z,100683
2018-09-17T10:46:03.000Z,100684
2018-09-17T10:48:03.000Z,100678
2018-09-17T10:50:03.000Z,100680
2018-09-17T10:52:03.000Z,100679
2018-09-17T10:53:48.000Z,100674
2018-09-17T10:55:03.000Z,100669
2018-09-17T10:57:03.000Z,100674
2018-09-17T10:58:03.000Z,100667
2018-09-17T11:00:03.000Z,100670
2018-09-17T11:01:48.000Z,100670
2018-09-17T11:03:03.000Z,100669
2018-09-17T11:04:03.000Z,100669
2018-09-17T11:05:33.000Z,100672
2018-09-17T11:07:03.000Z,100667
2018-09-17T11:08:48.000Z,100660
2018-09-17T11:10:03.000Z,100661
2018-09-17T11:12:03.000Z,100661
2018-09-17T11:14:03.000Z,100660
2018-09-17T11:15:03.000Z,100654
2018-09-17T11:16:48.000Z,100658
2018-09-17T11:18:03.000Z,100654
2018-09-17T11:20:03.000Z,100661
2018-09-17T11:21:03.000Z,100665
2018-09-17T11:22:03.000Z,100658
2018-09-17T11:24:03.000Z,100652
2018-09-17T11:25:03.000Z,100657
2018-09-17T11:27:03.000Z,100657
2018-09-17T11:28:03.000Z,100646
2018-09-17T11:30:03.000Z,100652
2018-09-17T11:32:03.000Z,100649
2018-09-17T11:34:03.000Z,100646
2018-09-17T11:35:03.000Z,100645
2018-09-17T11:37:03.000Z,100647
2018-09-17T11:39:03.000Z,100644
2018-09-17T11:41:03.000Z,100649
2018-09-17T11:43:03.000Z,100643
2018-09-17T11:44:47.000Z,100642
2018-09-17T11:46:03.000Z,100633
2018-09-17T11:48:03.000Z,100637
2018-09-17T11:50:03.000Z,100644
2018-09-17T11:51:32.000Z,100643
2018-09-17T11:53:03.000Z,100639
2018-09-17T11:55:03.000Z,100637
2018-09-17T11:57:03.000Z,100633
2018-09-17T11:58:03.000Z,100635
2018-09-17T11:59:47.000Z,100634
2018-09-17T12:01:03.000Z,100633
2018-09-17T12:03:03.000Z,100630
2018-09-17T12:05:03.000Z,100632
2018-09-17T12:07:03.000Z,100629
2018-09-17T12:09:03.000Z,100624
2018-09-17T12:10:03.000Z,100628
2018-09-17T12:12:03.000Z,100626
2018-09-17T12:14:03.000Z,100615
2018-09-17T12:16:03.000Z,100613
2018-09-17T12:17:03.000Z,100611
2018-09-17T12:19:03.000Z,100612
2018-09-17T12:20:03.000Z,100599
2018-09-17T12:22:03.000Z,100611
2018-09-17T12:24:03.000Z,100615
2018-09-17T12:26:03.000Z,100601
2018-09-17T12:28:03.000Z,100605
2018-09-17T12:30:03.000Z,100607
2018-09-17T12:32:03.000Z,100604
2018-09-17T12:33:03.000Z,100607
2018-09-17T12:35:03.000Z,100599
2018-09-17T12:36:03.000Z,100595
2018-09-17T12:38:03.000Z,100591
2018-09-17T12:39:03.000Z,100591
2018-09-17T12:41:03.000Z,100595
2018-09-17T12:43:03.000Z,100598
2018-09-17T12:45:03.000Z,100590
2018-09-17T12:47:03.000Z,100589
2018-09-17T12:49:03.000Z,100588
2018-09-17T12:50:03.000Z,100580
2018-09-17T12:52:03.000Z,100576
2018-09-17T12:54:03.000Z,100574
2018-09-17T12:55:03.000Z,100570
2018-09-17T12:57:03.000Z,100566
2018-09-17T12:59:03.000Z,100569
2018-09-17T13:01:03.000Z,100565
2018-09-17T13:02:03.000Z,100562
2018-09-17T13:04:03.000Z,100563
2018-09-17T13:06:03.000Z,100563
2018-09-17T13:07:48.000Z,100551
2018-09-17T13:09:03.000Z,100559
2018-09-17T13:10:48.000Z,100560
2018-09-17T13:12:03.000Z,100555
2018-09-17T13:14:03.000Z,100553
2018-09-17T13:15:03.000Z,100551
2018-09-17T13:17:03.000Z,100550
2018-09-17T13:18:03.000Z,100550
2018-09-17T13:19:48.000Z,100554
2018-09-17T13:20:49.000Z,100548
2018-09-17T13:22:03.000Z,100553
2018-09-17T13:23:03.000Z,100555
2018-09-17T13:24:03.000Z,100544
2018-09-17T13:26:03.000Z,100550
2018-09-17T13:28:03.000Z,100546
2018-09-17T13:30:03.000Z,100545
2018-09-17T13:31:03.000Z,100539
2018-09-17T13:33:03.000Z,100542
2018-09-17T13:34:03.000Z,100540
2018-09-17T13:36:03.000Z,100538
2018-09-17T13:38:03.000Z,100533
2018-09-17T13:40:03.000Z,100522
2018-09-17T13:42:03.000Z,100518
2018-09-17T13:43:48.000Z,100516
2018-09-17T13:44:48.000Z,100518
2018-09-17T13:46:03.000Z,100509
2018-09-17T13:48:03.000Z,100512
2018-09-17T13:49:03.000Z,100511
2018-09-17T13:51:03.000Z,100510
2018-09-17T13:52:03.000Z,100515
2018-09-17T13:53:03.000Z,100509
2018-09-17T13:55:03.000Z,100501
2018-09-17T13:56:48.000Z,100510
2018-09-17T13:58:03.000Z,100505
2018-09-17T14:00:03.000Z,100507
2018-09-17T14:01:03.000Z,100509
2018-09-17T14:02:03.000Z,100512
2018-09-17T14:04:03.000Z,100509
2018-09-17T14:05:03.000Z,100507
2018-09-17T14:43:38.000Z,100477
2018-09-17T14:45:37.000Z,100476
2018-09-17T14:47:37.000Z,100473
2018-09-17T14:48:37.000Z,100470
2018-09-17T14:50:23.000Z,100463
2018-09-17T14:52:37.000Z,100458
2018-09-17T14:54:37.000Z,100455
2018-09-17T14:55:37.000Z,100451
2018-09-17T14:57:37.000Z,100452
2018-09-17T14:59:37.000Z,100449
2018-09-17T15:01:22.000Z,100445
2018-09-17T15:02:37.000Z,100445
2018-09-17T15:03:37.000Z,100442
2018-09-17T15:05:37.000Z,100443
2018-09-17T15:07:37.000Z,100441
2018-09-17T15:09:37.000Z,100438
2018-09-17T15:11:37.000Z,100434
2018-09-17T15:13:07.000Z,100433
2018-09-17T15:14:37.000Z,100428
2018-09-17T15:16:37.000Z,100432
2018-09-17T15:18:07.000Z,100423
2018-09-17T15:19:37.000Z,100428
2018-09-17T15:21:37.000Z,100427
2018-09-17T15:23:37.000Z,100423
2018-09-17T15:25:37.000Z,100417
2018-09-17T15:26:37.000Z,100424
2018-09-17T15:27:37.000Z,100418
2018-09-17T15:28:37.000Z,100423
2018-09-17T15:30:37.000Z,100430
2018-09-17T15:31:37.000Z,100421
2018-09-17T15:32:37.000Z,100426
2018-09-17T15:34:37.000Z,100424
2018-09-17T15:36:37.000Z,100424
2018-09-17T15:38:22.000Z,100417
2018-09-17T15:39:37.000Z,100417
2018-09-17T15:40:37.000Z,100411
2018-09-17T15:42:37.000Z,100420
2018-09-17T15:44:37.000Z,100414
2018-09-17T15:45:37.000Z,100413
2018-09-17T15:46:37.000Z,100410
2018-09-17T15:48:37.000Z,100416
2018-09-17T15:50:37.000Z,100409
2018-09-17T15:52:37.000Z,100407
2018-09-17T15:53:37.000Z,100410
2018-09-17T15:55:37.000Z,100412
2018-09-17T15:56:37.000Z,100412
2018-09-17T15:58:37.000Z,100407
2018-09-17T16:00:37.000Z,100402
2018-09-17T16:01:37.000Z,100410
2018-09-17T16:03:37.000Z,100402
2018-09-17T16:04:37.000Z,100401
2018-09-17T16:06:37.000Z,100401
2018-09-17T16:07:37.000Z,100402
2018-09-17T16:08:37.000Z,100400
2018-09-17T16:10:37.000Z,100397
2018-09-17T16:12:37.000Z,100394
2018-09-17T16:14:37.000Z,100398
2018-09-17T16:16:37.000Z,100397
2018-09-17T16:18:37.000Z,100392
2018-09-17T16:20:37.000Z,100395
2018-09-17T16:22:37.000Z,100389
2018-09-17T16:23:37.000Z,100384
2018-09-17T16:25:22.000Z,100383
2018-09-17T16:26:37.000Z,100381
2018-09-17T16:27:37.000Z,100385
2018-09-17T16:29:37.000Z,100382
2018-09-17T16:30:37.000Z,100381
2018-09-17T16:32:37.000Z,100379
2018-09-17T16:33:37.000Z,100381
2018-09-17T16:34:37.000Z,100379
2018-09-17T16:35:37.000Z,100377
2018-09-17T16:37:37.000Z,100379
2018-09-17T16:39:37.000Z,100376
2018-09-17T16:41:22.000Z,100377
2018-09-17T16:42:37.000Z,100377
2018-09-17T16:44:37.000Z,100378
2018-09-17T16:46:37.000Z,100381
2018-09-17T16:48:22.000Z,100375
2018-09-17T16:49:37.000Z,100375
2018-09-17T16:50:37.000Z,100380
2018-09-17T16:51:37.000Z,100377
2018-09-17T16:53:37.000Z,100377
2018-09-17T16:55:37.000Z,100378
2018-09-17T16:57:37.000Z,100380
2018-09-17T16:58:37.000Z,100379
2018-09-17T17:00:37.000Z,100380
2018-09-17T17:02:22.000Z,100376
2018-09-17T17:03:37.000Z,100382
2018-09-17T17:05:37.000Z,100383
2018-09-17T17:07:37.000Z,100382
2018-09-17T17:09:37.000Z,100381
2018-09-17T17:10:37.000Z,100375
2018-09-17T17:12:37.000Z,100379
2018-09-17T17:14:37.000Z,100376
2018-09-17T17:16:22.000Z,100374
2018-09-17T17:17:37.000Z,100374
2018-09-17T17:19:22.000Z,100376
2018-09-17T17:20:37.000Z,100371
2018-09-17T17:22:37.000Z,100371
2018-09-17T17:24:22.000Z,100361
2018-09-17T17:25:37.000Z,100361
2018-09-17T17:26:37.000Z,100361
2018-09-17T17:28:37.000Z,100361
2018-09-17T17:30:37.000Z,100369
2018-09-17T17:31:37.000Z,100366
2018-09-17T17:33:37.000Z,100369
2018-09-17T17:35:37.000Z,100362
2018-09-17T17:37:22.000Z,100358
2018-09-17T17:38:37.000Z,100360
2018-09-17T17:39:37.000Z,100361
2018-09-17T17:41:37.000Z,100357
2018-09-17T17:42:37.000Z,100361
2018-09-17T17:43:37.000Z,100354
2018-09-17T17:44:37.000Z,100365
2018-09-17T17:46:37.000Z,100359
2018-09-17T17:47:37.000Z,100359
2018-09-17T17:49:37.000Z,100360
2018-09-17T17:50:37.000Z,100359
2018-09-17T17:52:37.000Z,100357
2018-09-17T17:54:37.000Z,100358
2018-09-17T17:55:37.000Z,100354
2018-09-17T17:57:37.000Z,100360
2018-09-17T17:58:37.000Z,100358
2018-09-17T17:59:37.000Z,100360
2018-09-17T18:01:37.000Z,100362
2018-09-17T18:03:37.000Z,100365
2018-09-17T18:04:37.000Z,100362
2018-09-17T18:06:37.000Z,100363
2018-09-17T18:08:22.000Z,100363
2018-09-17T18:09:37.000Z,100362
2018-09-17T18:11:37.000Z,100359
2018-09-17T18:13:37.000Z,100354
2018-09-17T18:15:37.000Z,100357
2018-09-17T18:17:37.000Z,100354
2018-09-17T18:19:37.000Z,100353
2018-09-17T18:20:37.000Z,100354
2018-09-17T18:22:37.000Z,100353
2018-09-17T18:24:37.000Z,100357
2018-09-17T18:25:37.000Z,100353
2018-09-17T18:26:37.000Z,100354
2018-09-17T18:28:22.000Z,100352
2018-09-17T18:29:37.000Z,100356
2018-09-17T18:31:37.000Z,100353
2018-09-17T18:33:37.000Z,100356
2018-09-17T18:35:37.000Z,100351
2018-09-17T18:37:37.000Z,100351
2018-09-17T18:38:37.000Z,100345
2018-09-17T18:40:37.000Z,100349
2018-09-17T18:42:37.000Z,100350
2018-09-17T18:44:37.000Z,100350
2018-09-17T18:46:37.000Z,100346
2018-09-17T18:47:37.000Z,100349
2018-09-17T18:49:22.000Z,100345
2018-09-17T18:50:37.000Z,100352
2018-09-17T18:51:37.000Z,100352
2018-09-17T18:53:37.000Z,100346
2018-09-17T18:55:37.000Z,100352
2018-09-17T18:56:37.000Z,100345
2018-09-17T18:57:37.000Z,100349
2018-09-17T18:59:37.000Z,100348
2018-09-17T19:01:37.000Z,100348
2018-09-17T19:03:37.000Z,100346
2018-09-17T19:04:37.000Z,100350
2018-09-17T19:06:37.000Z,100348
2018-09-17T19:08:37.000Z,100351
2018-09-17T19:10:22.000Z,100343
2018-09-17T19:11:37.000Z,100348
2018-09-17T19:13:37.000Z,100346
2018-09-17T19:15:37.000Z,100345
2018-09-17T19:16:37.000Z,100348
2018-09-17T19:18:37.000Z,100350
2018-09-17T19:19:37.000Z,100347
2018-09-17T19:21:37.000Z,100344
2018-09-17T19:23:37.000Z,100345
2018-09-17T19:25:22.000Z,100347
2018-09-17T19:26:37.000Z,100341
2018-09-17T19:27:37.000Z,100339
2018-09-17T19:29:37.000Z,100344
2018-09-17T19:31:37.000Z,100337
2018-09-17T19:32:37.000Z,100332
2018-09-17T19:33:37.000Z,100335
2018-09-17T19:35:37.000Z,100330
2018-09-17T19:36:37.000Z,100328
2018-09-17T19:38:37.000Z,100333
2018-09-17T19:40:37.000Z,100335
2018-09-17T19:42:37.000Z,100330
2018-09-17T19:44:37.000Z,100327
2018-09-17T19:46:37.000Z,100326
2018-09-17T19:48:38.000Z,100328
2018-09-17T19:50:38.000Z,100332
2018-09-17T19:52:22.000Z,100329
2018-09-17T19:53:38.000Z,100325
2018-09-17T19:55:38.000Z,100329
2018-09-17T19:57:38.000Z,100323
2018-09-17T19:58:38.000Z,100326
2018-09-17T20:00:22.000Z,100325
2018-09-17T20:01:38.000Z,100324
2018-09-17T20:03:38.000Z,100323
2018-09-17T20:05:38.000Z,100323
2018-09-17T20:07:38.000Z,100326
2018-09-17T20:09:38.000Z,100319
2018-09-17T20:11:38.000Z,100321
2018-09-17T20:13:38.000Z,100322
2018-09-17T20:15:38.000Z,100320
2018-09-17T20:17:38.000Z,100319
2018-09-17T20:18:38.000Z,100317
2018-09-17T20:19:38.000Z,100313
2018-09-17T20:21:38.000Z,100316
2018-09-17T20:23:38.000Z,100315
2018-09-17T20:25:22.000Z,100317
2018-09-17T20:26:38.000Z,100318
2018-09-17T20:28:38.000Z,100310
2018-09-17T20:29:38.000Z,100306
2018-09-17T20:31:38.000Z,100310
2018-09-17T20:33:38.000Z,100307
2018-09-17T20:35:38.000Z,100307
2018-09-17T20:36:38.000Z,100307
2018-09-17T20:38:22.000Z,100306
2018-09-17T20:40:38.000Z,100311
2018-09-17T20:42:38.000Z,100312
2018-09-17T20:44:22.000Z,100312
2018-09-17T20:45:38.000Z,100309
2018-09-17T20:47:38.000Z,100307
2018-09-17T20:49:38.000Z,100311
2018-09-17T20:51:38.000Z,100310
2018-09-17T20:53:38.000Z,100307
2018-09-17T20:54:38.000Z,100310
2018-09-17T20:56:38.000Z,100312
2018-09-17T20:57:38.000Z,100304
2018-09-17T20:59:38.000Z,100306
2018-09-17T21:01:38.000Z,100305